Elko, Canada
Current Conditions -  °F | °C
As of 2:00 AM on Monday 22 Dec 2014 (Local Time) from CYXC Reporting Station
Moderate Fog Moderate Fog  
Wind Chill: -4°   Ceiling: 7500
Heat Index: -4°   Visibility: 0.5mi
Dew Point: -5°   Wind: 0mph
Humidity: 93%   Direction: NA
Pressure: 29.81"   Gusts: NA
Location:  49.3°N, 115.12°W
Report Text: CYXC 220900Z 00000KT 1/2SM FZFG BKN075 M04/M05 A2981 RMK FG6AC1 SLP129
Loading
Personal Weather Stations






























Interactive Weather Map New forecast layout! Learn more

10-Day Weather Forecast

Advertisements
Track Severe Weather on mobile